sensor_id;sensor_type;location;lat;lon;timestamp;pressure;altitude;pressure_sealevel;temperature;humidity
41467;BME280;27205;53.690;19.948;2023-01-30T00:03:05;99175.77;;;1.61;100.00
41467;BME280;27205;53.690;19.948;2023-01-30T00:08:09;99153.88;;;1.59;100.00
41467;BME280;27205;53.690;19.948;2023-01-30T00:13:13;99133.58;;;1.61;100.00
41467;BME280;27205;53.690;19.948;2023-01-30T00:18:17;99122.46;;;1.60;100.00
41467;BME280;27205;53.690;19.948;2023-01-30T00:23:20;99117.43;;;1.60;100.00
41467;BME280;27205;53.690;19.948;2023-01-30T00:28:24;99098.29;;;1.62;100.00
41467;BME280;27205;53.690;19.948;2023-01-30T00:33:29;99089.88;;;1.63;100.00
41467;BME280;27205;53.690;19.948;2023-01-30T00:38:32;99072.15;;;1.62;100.00
41467;BME280;27205;53.690;19.948;2023-01-30T00:43:36;99063.79;;;1.62;100.00
41467;BME280;27205;53.690;19.948;2023-01-30T00:48:58;99057.63;;;1.58;100.00
41467;BME280;27205;53.690;19.948;2023-01-30T00:54:01;99047.36;;;1.59;100.00
41467;BME280;27205;53.690;19.948;2023-01-30T00:59:05;99041.89;;;1.58;100.00
41467;BME280;27205;53.690;19.948;2023-01-30T01:04:09;99028.85;;;1.58;100.00
41467;BME280;27205;53.690;19.948;2023-01-30T01:09:13;99022.04;;;1.58;100.00
41467;BME280;27205;53.690;19.948;2023-01-30T01:14:16;99012.25;;;1.59;100.00
41467;BME280;27205;53.690;19.948;2023-01-30T01:19:20;99003.48;;;1.58;100.00
41467;BME280;27205;53.690;19.948;2023-01-30T01:24:24;98990.53;;;1.59;100.00
41467;BME280;27205;53.690;19.948;2023-01-30T01:29:27;98979.38;;;1.59;100.00
41467;BME280;27205;53.690;19.948;2023-01-30T01:34:31;98957.71;;;1.60;100.00
41467;BME280;27205;53.690;19.948;2023-01-30T01:39:34;98952.33;;;1.61;100.00
41467;BME280;27205;53.690;19.948;2023-01-30T01:45:09;98952.16;;;1.63;100.00
41467;BME280;27205;53.690;19.948;2023-01-30T01:50:24;98938.13;;;1.64;100.00
41467;BME280;27205;53.690;19.948;2023-01-30T01:55:30;98934.05;;;1.62;100.00
41467;BME280;27205;53.690;19.948;2023-01-30T02:00:34;98906.83;;;1.60;100.00
41467;BME280;27205;53.690;19.948;2023-01-30T02:05:41;98886.21;;;1.57;100.00
41467;BME280;27205;53.690;19.948;2023-01-30T02:15:56;98850.77;;;1.53;100.00
41467;BME280;27205;53.690;19.948;2023-01-30T02:21:37;98824.84;;;1.52;100.00
41467;BME280;27205;53.690;19.948;2023-01-30T02:43:42;98771.56;;;1.48;100.00
41467;BME280;27205;53.690;19.948;2023-01-30T02:53:57;98742.91;;;1.47;100.00
41467;BME280;27205;53.690;19.948;2023-01-30T02:59:03;98745.23;;;1.47;100.00
41467;BME280;27205;53.690;19.948;2023-01-30T03:20:20;98693.05;;;1.43;100.00
41467;BME280;27205;53.690;19.948;2023-01-30T03:25:24;98690.02;;;1.44;100.00
41467;BME280;27205;53.690;19.948;2023-01-30T03:30:30;98678.20;;;1.44;100.00
41467;BME280;27205;53.690;19.948;2023-01-30T03:35:34;98656.23;;;1.45;100.00
41467;BME280;27205;53.690;19.948;2023-01-30T03:40:38;98640.98;;;1.47;100.00
41467;BME280;27205;53.690;19.948;2023-01-30T03:45:42;98624.24;;;1.51;100.00
41467;BME280;27205;53.690;19.948;2023-01-30T03:50:45;98624.83;;;1.52;100.00
41467;BME280;27205;53.690;19.948;2023-01-30T03:55:49;98636.54;;;1.54;100.00
41467;BME280;27205;53.690;19.948;2023-01-30T04:00:55;98611.32;;;1.51;100.00
41467;BME280;27205;53.690;19.948;2023-01-30T04:05:59;98594.05;;;1.46;100.00
41467;BME280;27205;53.690;19.948;2023-01-30T04:11:03;98594.30;;;1.41;100.00
41467;BME280;27205;53.690;19.948;2023-01-30T04:21:20;98588.91;;;1.45;100.00
41467;BME280;27205;53.690;19.948;2023-01-30T04:26:24;98570.78;;;1.44;100.00
41467;BME280;27205;53.690;19.948;2023-01-30T04:31:28;98551.11;;;1.42;100.00
41467;BME280;27205;53.690;19.948;2023-01-30T04:36:31;98529.81;;;1.39;100.00
41467;BME280;27205;53.690;19.948;2023-01-30T04:41:35;98512.73;;;1.38;100.00
41467;BME280;27205;53.690;19.948;2023-01-30T04:46:39;98501.80;;;1.33;100.00
41467;BME280;27205;53.690;19.948;2023-01-30T04:51:42;98489.59;;;1.31;100.00
41467;BME280;27205;53.690;19.948;2023-01-30T04:56:46;98490.70;;;1.26;100.00
41467;BME280;27205;53.690;19.948;2023-01-30T05:01:49;98463.73;;;1.20;100.00
41467;BME280;27205;53.690;19.948;2023-01-30T05:06:53;98452.19;;;1.15;100.00
41467;BME280;27205;53.690;19.948;2023-01-30T05:11:57;98443.38;;;1.13;100.00
41467;BME280;27205;53.690;19.948;2023-01-30T05:17:00;98434.62;;;1.13;100.00
41467;BME280;27205;53.690;19.948;2023-01-30T05:22:04;98410.21;;;1.09;100.00
41467;BME280;27205;53.690;19.948;2023-01-30T05:27:08;98394.77;;;1.04;100.00
41467;BME280;27205;53.690;19.948;2023-01-30T05:32:13;98393.75;;;1.01;100.00
41467;BME280;27205;53.690;19.948;2023-01-30T05:37:17;98387.48;;;0.99;100.00
41467;BME280;27205;53.690;19.948;2023-01-30T05:42:20;98373.88;;;0.97;100.00
41467;BME280;27205;53.690;19.948;2023-01-30T05:47:24;98373.65;;;0.97;100.00
41467;BME280;27205;53.690;19.948;2023-01-30T05:52:27;98362.07;;;0.95;100.00
41467;BME280;27205;53.690;19.948;2023-01-30T05:57:31;98350.27;;;0.94;100.00
41467;BME280;27205;53.690;19.948;2023-01-30T06:02:34;98344.42;;;0.93;100.00
41467;BME280;27205;53.690;19.948;2023-01-30T06:07:38;98331.23;;;0.93;100.00
41467;BME280;27205;53.690;19.948;2023-01-30T06:12:42;98336.46;;;0.89;100.00
41467;BME280;27205;53.690;19.948;2023-01-30T06:17:45;98323.21;;;0.89;100.00
41467;BME280;27205;53.690;19.948;2023-01-30T06:22:49;98312.64;;;0.88;100.00
41467;BME280;27205;53.690;19.948;2023-01-30T06:27:53;98302.32;;;0.85;100.00
41467;BME280;27205;53.690;19.948;2023-01-30T06:32:56;98284.52;;;0.83;100.00
41467;BME280;27205;53.690;19.948;2023-01-30T06:38:00;98276.42;;;0.82;100.00
41467;BME280;27205;53.690;19.948;2023-01-30T06:43:04;98272.98;;;0.81;100.00
41467;BME280;27205;53.690;19.948;2023-01-30T06:48:08;98252.33;;;0.82;100.00
41467;BME280;27205;53.690;19.948;2023-01-30T06:53:11;98257.61;;;0.84;100.00
41467;BME280;27205;53.690;19.948;2023-01-30T06:58:15;98253.30;;;0.83;100.00
41467;BME280;27205;53.690;19.948;2023-01-30T07:03:19;98236.36;;;0.87;100.00
41467;BME280;27205;53.690;19.948;2023-01-30T07:08:22;98227.05;;;0.91;100.00
41467;BME280;27205;53.690;19.948;2023-01-30T07:13:26;98230.73;;;0.94;100.00
41467;BME280;27205;53.690;19.948;2023-01-30T07:18:30;98219.33;;;0.96;100.00
41467;BME280;27205;53.690;19.948;2023-01-30T07:23:33;98216.52;;;0.96;100.00
41467;BME280;27205;53.690;19.948;2023-01-30T07:28:37;98210.96;;;0.98;100.00
41467;BME280;27205;53.690;19.948;2023-01-30T07:33:41;98216.77;;;0.98;100.00
41467;BME280;27205;53.690;19.948;2023-01-30T07:38:47;98208.75;;;0.94;100.00
41467;BME280;27205;53.690;19.948;2023-01-30T07:43:51;98214.04;;;0.91;100.00
41467;BME280;27205;53.690;19.948;2023-01-30T07:48:55;98205.73;;;0.86;100.00
41467;BME280;27205;53.690;19.948;2023-01-30T07:54:02;98201.39;;;0.82;100.00
41467;BME280;27205;53.690;19.948;2023-01-30T07:59:05;98201.72;;;0.82;100.00
41467;BME280;27205;53.690;19.948;2023-01-30T08:04:10;98202.80;;;0.80;100.00
41467;BME280;27205;53.690;19.948;2023-01-30T08:09:13;98186.86;;;0.79;100.00
41467;BME280;27205;53.690;19.948;2023-01-30T08:14:17;98195.59;;;0.82;100.00
41467;BME280;27205;53.690;19.948;2023-01-30T08:19:20;98183.23;;;0.87;100.00
41467;BME280;27205;53.690;19.948;2023-01-30T08:24:24;98168.65;;;0.90;100.00
41467;BME280;27205;53.690;19.948;2023-01-30T08:29:28;98159.94;;;0.96;100.00
41467;BME280;27205;53.690;19.948;2023-01-30T08:34:32;98162.65;;;1.01;100.00
41467;BME280;27205;53.690;19.948;2023-01-30T08:39:35;98169.29;;;1.02;100.00
41467;BME280;27205;53.690;19.948;2023-01-30T08:44:39;98155.70;;;1.01;100.00
41467;BME280;27205;53.690;19.948;2023-01-30T08:49:42;98159.20;;;1.04;100.00
41467;BME280;27205;53.690;19.948;2023-01-30T08:54:46;98135.69;;;1.06;100.00
41467;BME280;27205;53.690;19.948;2023-01-30T08:59:50;98148.91;;;1.11;100.00
41467;BME280;27205;53.690;19.948;2023-01-30T09:04:54;98136.41;;;1.18;100.00
41467;BME280;27205;53.690;19.948;2023-01-30T09:09:57;98147.30;;;1.23;100.00
41467;BME280;27205;53.690;19.948;2023-01-30T09:15:01;98134.48;;;1.20;100.00
41467;BME280;27205;53.690;19.948;2023-01-30T09:20:06;98128.84;;;1.23;100.00
41467;BME280;27205;53.690;19.948;2023-01-30T09:25:10;98130.05;;;1.31;100.00
41467;BME280;27205;53.690;19.948;2023-01-30T09:30:14;98133.64;;;1.34;100.00
41467;BME280;27205;53.690;19.948;2023-01-30T09:35:19;98129.75;;;1.36;100.00
41467;BME280;27205;53.690;19.948;2023-01-30T09:40:27;98123.84;;;1.37;100.00
41467;BME280;27205;53.690;19.948;2023-01-30T09:45:58;98117.40;;;1.41;100.00
41467;BME280;27205;53.690;19.948;2023-01-30T09:56:23;98123.27;;;1.52;100.00
41467;BME280;27205;53.690;19.948;2023-01-30T10:17:33;98104.33;;;1.65;100.00
41467;BME280;27205;53.690;19.948;2023-01-30T10:28:15;98081.60;;;1.81;100.00
41467;BME280;27205;53.690;19.948;2023-01-30T10:33:26;98070.41;;;1.83;100.00
41467;BME280;27205;53.690;19.948;2023-01-30T10:38:39;98067.48;;;2.04;100.00
41467;BME280;27205;53.690;19.948;2023-01-30T10:43:51;98074.63;;;2.19;100.00
41467;BME280;27205;53.690;19.948;2023-01-30T10:59:53;98070.45;;;2.51;100.00
41467;BME280;27205;53.690;19.948;2023-01-30T11:05:03;98068.77;;;2.60;100.00
41467;BME280;27205;53.690;19.948;2023-01-30T11:10:24;98063.66;;;2.71;100.00
41467;BME280;27205;53.690;19.948;2023-01-30T11:15:39;98057.10;;;2.72;100.00
41467;BME280;27205;53.690;19.948;2023-01-30T11:20:45;98045.05;;;2.72;100.00
41467;BME280;27205;53.690;19.948;2023-01-30T11:25:56;98041.20;;;2.74;100.00
41467;BME280;27205;53.690;19.948;2023-01-30T11:31:21;98033.31;;;2.80;100.00
41467;BME280;27205;53.690;19.948;2023-01-30T11:36:43;98026.26;;;2.88;100.00
41467;BME280;27205;53.690;19.948;2023-01-30T11:47:21;98015.00;;;2.86;100.00
41467;BME280;27205;53.690;19.948;2023-01-30T11:52:29;98006.83;;;2.83;100.00
41467;BME280;27205;53.690;19.948;2023-01-30T11:57:48;97982.25;;;2.87;100.00
41467;BME280;27205;53.690;19.948;2023-01-30T12:02:53;97978.80;;;2.87;100.00
41467;BME280;27205;53.690;19.948;2023-01-30T12:13:39;97982.82;;;3.31;100.00
41467;BME280;27205;53.690;19.948;2023-01-30T12:19:00;97973.52;;;3.30;100.00
41467;BME280;27205;53.690;19.948;2023-01-30T12:24:26;97968.65;;;3.31;100.00
41467;BME280;27205;53.690;19.948;2023-01-30T12:29:41;97961.67;;;3.43;100.00
41467;BME280;27205;53.690;19.948;2023-01-30T12:34:57;97956.80;;;3.53;100.00
41467;BME280;27205;53.690;19.948;2023-01-30T12:40:27;97951.27;;;3.60;100.00
41467;BME280;27205;53.690;19.948;2023-01-30T13:13:24;97959.02;;;3.82;100.00
41467;BME280;27205;53.690;19.948;2023-01-30T13:29:38;97955.75;;;3.80;100.00
41467;BME280;27205;53.690;19.948;2023-01-30T13:34:44;97961.09;;;3.73;100.00
41467;BME280;27205;53.690;19.948;2023-01-30T13:39:57;97958.28;;;3.62;100.00
41467;BME280;27205;53.690;19.948;2023-01-30T13:45:03;97945.46;;;3.46;100.00
41467;BME280;27205;53.690;19.948;2023-01-30T13:50:30;97939.03;;;3.44;100.00
41467;BME280;27205;53.690;19.948;2023-01-30T13:56:08;97946.14;;;3.52;100.00
41467;BME280;27205;53.690;19.948;2023-01-30T14:07:32;97947.33;;;3.49;100.00
41467;BME280;27205;53.690;19.948;2023-01-30T14:12:49;97931.86;;;3.47;100.00
41467;BME280;27205;53.690;19.948;2023-01-30T14:23:02;97938.96;;;3.70;100.00
41467;BME280;27205;53.690;19.948;2023-01-30T14:33:32;97928.21;;;3.70;100.00
41467;BME280;27205;53.690;19.948;2023-01-30T14:38:37;97941.14;;;3.61;100.00
41467;BME280;27205;53.690;19.948;2023-01-30T15:10:16;97939.70;;;3.05;100.00
41467;BME280;27205;53.690;19.948;2023-01-30T15:21:38;97950.46;;;2.87;100.00
41467;BME280;27205;53.690;19.948;2023-01-30T15:32:20;97953.55;;;2.83;100.00
41467;BME280;27205;53.690;19.948;2023-01-30T15:37:36;97964.70;;;2.84;100.00
41467;BME280;27205;53.690;19.948;2023-01-30T15:48:39;97979.28;;;2.87;100.00
41467;BME280;27205;53.690;19.948;2023-01-30T15:53:46;97990.00;;;2.87;100.00
41467;BME280;27205;53.690;19.948;2023-01-30T15:58:57;97996.79;;;2.85;100.00
41467;BME280;27205;53.690;19.948;2023-01-30T16:04:01;98010.20;;;2.83;100.00
41467;BME280;27205;53.690;19.948;2023-01-30T16:09:21;98016.73;;;2.84;100.00
41467;BME280;27205;53.690;19.948;2023-01-30T16:14:24;98020.95;;;2.82;100.00
41467;BME280;27205;53.690;19.948;2023-01-30T16:19:31;98027.71;;;2.77;100.00
41467;BME280;27205;53.690;19.948;2023-01-30T16:24:36;98046.08;;;2.71;100.00
41467;BME280;27205;53.690;19.948;2023-01-30T16:29:48;98053.30;;;2.72;100.00
41467;BME280;27205;53.690;19.948;2023-01-30T16:40:42;98052.08;;;2.76;100.00
41467;BME280;27205;53.690;19.948;2023-01-30T16:56:06;98069.54;;;2.89;100.00
41467;BME280;27205;53.690;19.948;2023-01-30T17:01:12;98066.63;;;2.87;100.00
41467;BME280;27205;53.690;19.948;2023-01-30T17:06:21;98069.09;;;2.87;100.00
41467;BME280;27205;53.690;19.948;2023-01-30T17:11:35;98064.45;;;2.85;100.00
41467;BME280;27205;53.690;19.948;2023-01-30T17:16:39;98061.39;;;2.82;100.00
41467;BME280;27205;53.690;19.948;2023-01-30T17:21:49;98072.02;;;2.82;100.00
41467;BME280;27205;53.690;19.948;2023-01-30T17:26:56;98071.54;;;2.83;100.00
41467;BME280;27205;53.690;19.948;2023-01-30T17:32:09;98071.02;;;2.79;100.00
41467;BME280;27205;53.690;19.948;2023-01-30T17:37:18;98073.77;;;2.76;100.00
41467;BME280;27205;53.690;19.948;2023-01-30T17:42:23;98085.05;;;2.75;100.00
41467;BME280;27205;53.690;19.948;2023-01-30T17:47:27;98083.06;;;2.79;100.00
41467;BME280;27205;53.690;19.948;2023-01-30T17:52:31;98088.23;;;2.78;100.00
41467;BME280;27205;53.690;19.948;2023-01-30T17:57:34;98099.31;;;2.76;100.00
41467;BME280;27205;53.690;19.948;2023-01-30T18:02:38;98079.26;;;2.71;100.00
41467;BME280;27205;53.690;19.948;2023-01-30T18:07:42;98087.39;;;2.69;100.00
41467;BME280;27205;53.690;19.948;2023-01-30T18:12:45;98104.23;;;2.70;100.00
41467;BME280;27205;53.690;19.948;2023-01-30T18:17:49;98099.95;;;2.69;100.00
41467;BME280;27205;53.690;19.948;2023-01-30T18:22:53;98089.29;;;2.69;100.00
41467;BME280;27205;53.690;19.948;2023-01-30T18:27:57;98108.75;;;2.72;100.00
41467;BME280;27205;53.690;19.948;2023-01-30T18:33:00;98114.98;;;2.76;100.00
41467;BME280;27205;53.690;19.948;2023-01-30T18:38:04;98119.36;;;2.77;100.00
41467;BME280;27205;53.690;19.948;2023-01-30T18:43:08;98126.36;;;2.81;100.00
41467;BME280;27205;53.690;19.948;2023-01-30T18:48:11;98133.30;;;2.84;100.00
41467;BME280;27205;53.690;19.948;2023-01-30T18:53:16;98131.67;;;2.84;100.00
41467;BME280;27205;53.690;19.948;2023-01-30T18:58:19;98137.34;;;2.86;100.00
41467;BME280;27205;53.690;19.948;2023-01-30T19:03:24;98148.02;;;2.88;100.00
41467;BME280;27205;53.690;19.948;2023-01-30T19:08:29;98149.86;;;2.88;100.00
41467;BME280;27205;53.690;19.948;2023-01-30T19:13:33;98162.20;;;2.90;100.00
41467;BME280;27205;53.690;19.948;2023-01-30T19:18:38;98164.27;;;2.88;100.00
41467;BME280;27205;53.690;19.948;2023-01-30T19:23:42;98166.16;;;2.84;100.00
41467;BME280;27205;53.690;19.948;2023-01-30T19:28:46;98170.98;;;2.79;100.00
41467;BME280;27205;53.690;19.948;2023-01-30T19:33:56;98176.52;;;2.76;100.00
41467;BME280;27205;53.690;19.948;2023-01-30T19:39:01;98177.91;;;2.72;100.00
41467;BME280;27205;53.690;19.948;2023-01-30T19:44:07;98182.90;;;2.69;100.00
41467;BME280;27205;53.690;19.948;2023-01-30T19:49:13;98176.45;;;2.65;100.00
41467;BME280;27205;53.690;19.948;2023-01-30T19:54:17;98179.75;;;2.63;100.00
41467;BME280;27205;53.690;19.948;2023-01-30T19:59:22;98179.55;;;2.60;100.00
41467;BME280;27205;53.690;19.948;2023-01-30T20:04:26;98184.90;;;2.59;100.00
41467;BME280;27205;53.690;19.948;2023-01-30T20:09:33;98190.70;;;2.61;100.00
41467;BME280;27205;53.690;19.948;2023-01-30T20:14:37;98190.49;;;2.64;100.00
41467;BME280;27205;53.690;19.948;2023-01-30T20:19:41;98194.52;;;2.66;100.00
41467;BME280;27205;53.690;19.948;2023-01-30T20:24:45;98185.30;;;2.67;100.00
41467;BME280;27205;53.690;19.948;2023-01-30T20:29:49;98193.52;;;2.66;100.00
41467;BME280;27205;53.690;19.948;2023-01-30T20:34:53;98202.20;;;2.68;100.00
41467;BME280;27205;53.690;19.948;2023-01-30T20:39:56;98205.70;;;2.69;100.00
41467;BME280;27205;53.690;19.948;2023-01-30T20:45:01;98214.46;;;2.69;100.00
41467;BME280;27205;53.690;19.948;2023-01-30T20:50:05;98221.60;;;2.71;100.00
41467;BME280;27205;53.690;19.948;2023-01-30T20:55:09;98228.62;;;2.73;100.00
41467;BME280;27205;53.690;19.948;2023-01-30T21:00:13;98233.23;;;2.73;100.00
41467;BME280;27205;53.690;19.948;2023-01-30T21:05:17;98231.88;;;2.77;100.00
41467;BME280;27205;53.690;19.948;2023-01-30T21:10:23;98238.02;;;2.80;100.00
41467;BME280;27205;53.690;19.948;2023-01-30T21:15:27;98235.41;;;2.80;100.00
41467;BME280;27205;53.690;19.948;2023-01-30T21:20:30;98241.29;;;2.80;100.00
41467;BME280;27205;53.690;19.948;2023-01-30T21:25:34;98237.14;;;2.79;100.00
41467;BME280;27205;53.690;19.948;2023-01-30T21:30:38;98253.80;;;2.82;100.00
41467;BME280;27205;53.690;19.948;2023-01-30T21:35:44;98267.33;;;2.82;100.00
41467;BME280;27205;53.690;19.948;2023-01-30T21:40:51;98270.26;;;2.84;100.00
41467;BME280;27205;53.690;19.948;2023-01-30T21:46:14;98272.04;;;2.86;100.00
41467;BME280;27205;53.690;19.948;2023-01-30T21:51:18;98279.98;;;2.87;100.00
41467;BME280;27205;53.690;19.948;2023-01-30T21:56:24;98276.34;;;2.89;100.00
41467;BME280;27205;53.690;19.948;2023-01-30T22:01:28;98285.15;;;2.90;100.00
41467;BME280;27205;53.690;19.948;2023-01-30T22:06:32;98288.33;;;2.89;100.00
41467;BME280;27205;53.690;19.948;2023-01-30T22:11:36;98298.56;;;2.91;100.00
41467;BME280;27205;53.690;19.948;2023-01-30T22:16:40;98301.45;;;2.96;100.00
41467;BME280;27205;53.690;19.948;2023-01-30T22:21:44;98315.35;;;2.98;100.00
41467;BME280;27205;53.690;19.948;2023-01-30T22:26:49;98331.52;;;2.98;100.00
41467;BME280;27205;53.690;19.948;2023-01-30T22:31:52;98329.51;;;3.01;100.00
41467;BME280;27205;53.690;19.948;2023-01-30T22:36:56;98352.11;;;3.03;100.00
41467;BME280;27205;53.690;19.948;2023-01-30T22:42:00;98347.98;;;3.04;100.00
41467;BME280;27205;53.690;19.948;2023-01-30T22:47:05;98354.25;;;3.02;100.00
41467;BME280;27205;53.690;19.948;2023-01-30T22:52:08;98362.37;;;2.98;100.00
41467;BME280;27205;53.690;19.948;2023-01-30T22:57:12;98372.77;;;2.91;100.00
41467;BME280;27205;53.690;19.948;2023-01-30T23:02:15;98369.73;;;2.83;100.00
41467;BME280;27205;53.690;19.948;2023-01-30T23:07:19;98376.23;;;2.73;100.00
41467;BME280;27205;53.690;19.948;2023-01-30T23:12:24;98377.52;;;2.63;100.00
41467;BME280;27205;53.690;19.948;2023-01-30T23:17:46;98394.81;;;2.58;100.00
41467;BME280;27205;53.690;19.948;2023-01-30T23:23:08;98394.42;;;2.53;100.00
41467;BME280;27205;53.690;19.948;2023-01-30T23:28:12;98391.85;;;2.47;100.00
41467;BME280;27205;53.690;19.948;2023-01-30T23:33:15;98400.94;;;2.44;100.00
41467;BME280;27205;53.690;19.948;2023-01-30T23:38:19;98403.08;;;2.42;100.00
41467;BME280;27205;53.690;19.948;2023-01-30T23:43:24;98419.17;;;2.40;100.00
41467;BME280;27205;53.690;19.948;2023-01-30T23:48:27;98417.02;;;2.36;100.00
41467;BME280;27205;53.690;19.948;2023-01-30T23:53:31;98416.54;;;2.33;100.00
41467;BME280;27205;53.690;19.948;2023-01-30T23:58:35;98415.96;;;2.28;100.00
